createdAt,value
2018-12-09T00:01:39.800Z,99.90
2018-12-09T00:06:54.662Z,99.90
2018-12-09T00:09:28.974Z,99.90
2018-12-09T00:12:05.400Z,99.90
2018-12-09T00:14:39.318Z,99.90
2018-12-09T00:17:14.801Z,99.90
2018-12-09T00:19:50.690Z,99.90
2018-12-09T00:22:25.465Z,99.90
2018-12-09T00:24:59.162Z,99.90
2018-12-09T00:27:39.632Z,99.90
2018-12-09T00:30:42.476Z,99.90
2018-12-09T00:33:34.879Z,99.90
2018-12-09T00:36:20.638Z,99.90
2018-12-09T00:39:04.504Z,99.90
2018-12-09T00:41:42.165Z,99.90
2018-12-09T00:44:25.061Z,99.90
2018-12-09T01:03:20.609Z,99.90
2018-12-09T01:05:55.124Z,99.90
2018-12-09T01:08:30.628Z,99.90
2018-12-09T01:11:07.255Z,99.90
2018-12-09T01:13:41.785Z,99.90
2018-12-09T01:16:17.225Z,99.90
2018-12-09T01:18:56.914Z,99.90
2018-12-09T01:21:44.901Z,99.90
2018-12-09T01:24:19.772Z,99.90
2018-12-09T01:26:58.094Z,99.90
2018-12-09T01:29:31.821Z,99.90
2018-12-09T01:32:11.495Z,99.90
2018-12-09T01:34:45.379Z,99.90
2018-12-09T01:40:49.088Z,99.90
2018-12-09T01:43:22.417Z,99.90
2018-12-09T01:45:59.676Z,99.90
2018-12-09T01:48:32.856Z,99.90
2018-12-09T01:51:08.955Z,99.90
2018-12-09T01:54:20.292Z,99.90
2018-12-09T01:57:06.407Z,99.90
2018-12-09T01:59:52.353Z,99.90
2018-12-09T02:05:47.262Z,99.90
2018-12-09T02:08:21.905Z,99.90
2018-12-09T02:10:55.272Z,99.90
2018-12-09T02:13:27.948Z,99.90
2018-12-09T02:16:01.365Z,99.90
2018-12-09T02:18:43.807Z,99.90
2018-12-09T02:21:17.171Z,99.90
2018-12-09T02:23:49.782Z,99.90
2018-12-09T02:26:23.941Z,99.90
2018-12-09T02:29:01.711Z,99.90
2018-12-09T02:31:35.142Z,99.90
2018-12-09T02:34:09.102Z,99.90
2018-12-09T02:36:42.871Z,99.90
2018-12-09T02:39:16.994Z,99.90
2018-12-09T02:41:51.128Z,99.90
2018-12-09T02:44:23.865Z,99.90
2018-12-09T02:46:57.748Z,99.90
2018-12-09T02:49:30.268Z,99.90
2018-12-09T02:52:03.609Z,99.90
2018-12-09T02:54:36.246Z,99.90
2018-12-09T02:57:09.710Z,99.90
2018-12-09T02:59:42.544Z,99.90
2018-12-09T03:02:16.308Z,99.90
2018-12-09T03:08:12.108Z,99.90
2018-12-09T03:10:46.578Z,99.90
2018-12-09T03:13:20.247Z,99.90
2018-12-09T03:15:53.211Z,99.90
2018-12-09T03:18:26.908Z,99.90
2018-12-09T03:20:59.750Z,99.90
2018-12-09T03:23:33.916Z,99.90
2018-12-09T03:26:06.929Z,99.90
2018-12-09T03:28:40.419Z,99.90
2018-12-09T03:31:14.987Z,99.90
2018-12-09T03:33:53.703Z,99.90
2018-12-09T03:36:27.360Z,99.90
2018-12-09T03:39:01.539Z,99.90
2018-12-09T03:41:34.403Z,99.90
2018-12-09T03:44:08.534Z,99.90
2018-12-09T03:49:23.383Z,99.90
2018-12-09T03:51:58.742Z,99.90
2018-12-09T03:54:35.954Z,99.90
2018-12-09T03:57:08.909Z,99.90
2018-12-09T03:59:42.619Z,99.90
2018-12-09T04:02:16.251Z,99.90
2018-12-09T04:04:50.035Z,99.90
2018-12-09T04:07:23.807Z,99.90
2018-12-09T04:09:57.358Z,99.90
2018-12-09T04:12:31.821Z,99.90
2018-12-09T04:15:06.651Z,99.90
2018-12-09T04:17:42.113Z,99.90
2018-12-09T04:20:17.029Z,99.90
2018-12-09T04:22:57.338Z,99.90
2018-12-09T04:25:31.207Z,99.90
2018-12-09T04:28:05.510Z,99.90
2018-12-09T04:30:38.903Z,99.90
2018-12-09T04:33:14.498Z,99.90
2018-12-09T04:35:48.712Z,99.90
2018-12-09T04:38:23.289Z,99.90
2018-12-09T04:40:56.795Z,99.90
2018-12-09T04:47:01.731Z,99.90
2018-12-09T04:49:34.569Z,99.90
2018-12-09T04:52:08.400Z,99.90
2018-12-09T04:54:41.037Z,99.90
2018-12-09T04:57:13.626Z,99.90
2018-12-09T04:59:52.172Z,99.90
2018-12-09T05:02:24.922Z,99.90
2018-12-09T05:04:57.523Z,99.90
2018-12-09T05:07:30.101Z,99.90
2018-12-09T05:13:43.075Z,99.90
2018-12-09T05:16:15.587Z,99.90
2018-12-09T05:18:49.158Z,99.90
2018-12-09T05:21:21.794Z,99.90
2018-12-09T05:23:54.352Z,99.90
2018-12-09T05:26:27.987Z,99.90
2018-12-09T05:29:00.653Z,99.90
2018-12-09T05:31:33.951Z,99.90
2018-12-09T05:34:08.006Z,99.90
2018-12-09T05:36:41.156Z,99.90
2018-12-09T05:39:13.865Z,99.90
2018-12-09T05:41:46.663Z,99.90
2018-12-09T05:44:19.258Z,99.90
2018-12-09T05:46:51.835Z,99.90
2018-12-09T05:49:24.436Z,99.90
2018-12-09T05:51:57.015Z,99.90
2018-12-09T05:54:29.827Z,99.90
2018-12-09T05:57:02.357Z,99.90
2018-12-09T05:59:34.901Z,99.90
2018-12-09T06:02:16.675Z,99.90
2018-12-09T06:04:49.367Z,99.90
2018-12-09T06:07:21.917Z,99.90
2018-12-09T06:09:54.421Z,99.90
2018-12-09T06:12:26.918Z,99.90
2018-12-09T06:14:59.676Z,99.90
2018-12-09T06:17:32.361Z,99.90
2018-12-09T06:20:04.896Z,99.90
2018-12-09T06:22:37.465Z,99.90
2018-12-09T06:25:09.963Z,99.90
2018-12-09T06:27:42.505Z,99.90
2018-12-09T06:30:15.462Z,99.90
2018-12-09T06:32:48.122Z,99.90
2018-12-09T06:35:20.603Z,99.90
2018-12-09T06:37:53.572Z,99.90
2018-12-09T06:40:26.140Z,99.90
2018-12-09T06:42:58.753Z,99.90
2018-12-09T06:45:31.096Z,99.90
2018-12-09T06:48:03.459Z,99.90
2018-12-09T06:50:35.818Z,99.90
2018-12-09T06:53:07.971Z,99.90
2018-12-09T06:55:40.314Z,99.90
2018-12-09T06:58:12.603Z,99.90
2018-12-09T07:00:44.895Z,99.90
2018-12-09T07:03:17.187Z,99.90
2018-12-09T07:05:49.651Z,99.90
2018-12-09T07:08:21.987Z,99.90
2018-12-09T07:10:54.445Z,99.90
2018-12-09T07:13:27.024Z,99.90
2018-12-09T07:15:59.853Z,99.90
2018-12-09T07:18:32.171Z,99.90
2018-12-09T07:21:04.554Z,99.90
2018-12-09T07:23:36.874Z,99.90
2018-12-09T07:26:09.259Z,99.90
2018-12-09T07:28:41.642Z,99.90
2018-12-09T07:34:34.913Z,99.90
2018-12-09T07:37:08.962Z,99.90
2018-12-09T07:39:41.657Z,99.90
2018-12-09T07:42:14.689Z,99.90
2018-12-09T07:44:47.553Z,99.90
2018-12-09T07:47:20.343Z,99.90
2018-12-09T07:49:53.107Z,99.90
2018-12-09T07:52:25.928Z,99.90
2018-12-09T07:58:24.328Z,99.90
2018-12-09T08:00:56.745Z,99.90
2018-12-09T08:03:29.759Z,99.90
2018-12-09T08:06:03.061Z,99.90
2018-12-09T08:09:13.139Z,99.90
2018-12-09T08:11:46.121Z,99.90
2018-12-09T08:14:19.023Z,99.90
2018-12-09T08:19:34.492Z,99.90
2018-12-09T08:22:07.694Z,99.90
2018-12-09T08:24:40.869Z,99.90
2018-12-09T08:27:14.115Z,99.90
2018-12-09T08:29:47.703Z,99.90
2018-12-09T08:32:23.270Z,99.90
2018-12-09T08:34:59.398Z,99.90
2018-12-09T08:37:41.187Z,99.90
2018-12-09T08:40:16.893Z,99.90
2018-12-09T08:42:52.816Z,99.90
2018-12-09T08:45:28.716Z,99.90
2018-12-09T08:48:04.237Z,99.90
2018-12-09T08:50:39.377Z,99.90
2018-12-09T08:53:16.221Z,99.90
2018-12-09T08:55:52.400Z,99.90
2018-12-09T08:58:28.082Z,99.90
2018-12-09T09:01:05.677Z,99.90
2018-12-09T09:03:38.642Z,99.90
2018-12-09T09:06:11.453Z,99.90
2018-12-09T09:08:44.256Z,99.90
2018-12-09T09:11:17.031Z,99.90
2018-12-09T09:13:49.980Z,99.90
2018-12-09T09:16:23.001Z,99.90
2018-12-09T09:18:56.311Z,99.90
2018-12-09T09:21:29.075Z,99.90
2018-12-09T09:24:01.891Z,99.90
2018-12-09T09:26:34.691Z,99.90
2018-12-09T09:29:07.526Z,99.90
2018-12-09T09:31:40.297Z,99.90
2018-12-09T09:34:12.988Z,99.90
2018-12-09T09:36:45.783Z,99.90
2018-12-09T09:39:18.552Z,99.90
2018-12-09T09:41:51.362Z,99.90
2018-12-09T09:44:24.243Z,99.90
2018-12-09T09:46:57.019Z,99.90
2018-12-09T09:49:29.808Z,99.90
2018-12-09T09:52:02.582Z,99.90
2018-12-09T09:54:35.328Z,99.90
2018-12-09T09:57:08.825Z,99.90
2018-12-09T09:59:41.664Z,99.90
2018-12-09T10:02:14.420Z,99.90
2018-12-09T10:04:47.218Z,99.90
2018-12-09T10:07:19.973Z,99.90
2018-12-09T10:09:52.843Z,99.90
2018-12-09T10:12:25.635Z,99.90
2018-12-09T10:14:58.415Z,99.90
2018-12-09T10:21:02.103Z,99.90
2018-12-09T10:23:34.617Z,99.90
2018-12-09T10:26:06.910Z,99.90
2018-12-09T10:28:39.189Z,99.90
2018-12-09T10:31:12.105Z,99.90
2018-12-09T10:33:44.427Z,99.90
2018-12-09T10:36:16.705Z,99.90
2018-12-09T10:38:49.656Z,99.90
2018-12-09T10:41:21.965Z,99.90
2018-12-09T10:47:26.053Z,99.90
2018-12-09T10:49:58.651Z,99.90
2018-12-09T10:53:15.073Z,99.90
2018-12-09T10:55:48.213Z,99.90
2018-12-09T10:58:20.977Z,99.90
2018-12-09T11:00:55.780Z,99.90
2018-12-09T11:03:28.443Z,99.90
2018-12-09T11:09:22.684Z,99.90
2018-12-09T11:11:55.332Z,99.90
2018-12-09T11:14:27.937Z,99.90
2018-12-09T11:17:00.995Z,99.90
2018-12-09T11:19:33.629Z,99.90
2018-12-09T11:25:19.519Z,99.90
2018-12-09T11:27:52.408Z,99.90
2018-12-09T11:30:25.069Z,99.90
2018-12-09T11:32:58.640Z,99.90
2018-12-09T11:35:31.491Z,99.90
2018-12-09T11:38:04.201Z,99.90
2018-12-09T11:40:37.030Z,99.90
2018-12-09T11:43:09.830Z,99.90
2018-12-09T11:45:42.428Z,99.90
2018-12-09T11:48:20.227Z,99.90
2018-12-09T11:50:56.051Z,99.90
2018-12-09T11:53:31.446Z,99.90
2018-12-09T11:56:06.719Z,99.90
2018-12-09T11:58:40.223Z,99.90
2018-12-09T12:01:12.941Z,99.90
2018-12-09T12:03:45.589Z,99.90
2018-12-09T12:06:18.218Z,99.90
2018-12-09T12:08:50.976Z,99.90
2018-12-09T12:11:23.864Z,99.90
2018-12-09T12:13:58.905Z,99.90
2018-12-09T12:16:31.885Z,99.90
2018-12-09T12:19:09.969Z,99.90
2018-12-09T12:21:43.391Z,99.90
2018-12-09T12:24:16.855Z,99.90
2018-12-09T12:26:49.537Z,99.90
2018-12-09T12:29:22.332Z,99.90
2018-12-09T12:31:55.189Z,99.90
2018-12-09T12:34:28.195Z,99.90
2018-12-09T12:37:00.914Z,99.90
2018-12-09T12:39:33.850Z,99.90
2018-12-09T12:42:06.688Z,99.90
2018-12-09T12:44:40.104Z,99.90
2018-12-09T12:47:12.765Z,99.90
2018-12-09T12:49:45.800Z,99.90
2018-12-09T12:52:19.473Z,99.90
2018-12-09T12:54:52.870Z,99.90
2018-12-09T12:57:25.774Z,99.90
2018-12-09T12:59:58.498Z,99.90
2018-12-09T13:02:34.471Z,99.90
2018-12-09T13:05:11.540Z,99.90
2018-12-09T13:07:45.540Z,99.90
2018-12-09T13:10:19.413Z,99.90
2018-12-09T13:12:52.507Z,99.90
2018-12-09T13:15:25.656Z,99.90
2018-12-09T13:17:58.561Z,99.90
2018-12-09T13:20:32.693Z,99.90
2018-12-09T13:23:05.922Z,99.90
2018-12-09T13:25:41.338Z,99.90
2018-12-09T13:28:14.562Z,99.90
2018-12-09T13:30:48.863Z,99.90
2018-12-09T13:33:26.232Z,99.90
2018-12-09T13:35:59.256Z,99.90
2018-12-09T13:38:32.227Z,99.90
2018-12-09T13:41:06.772Z,99.90
2018-12-09T13:43:39.501Z,99.90
2018-12-09T13:46:14.773Z,99.90
2018-12-09T13:48:47.805Z,99.90
2018-12-09T13:51:22.701Z,99.90
2018-12-09T13:53:56.486Z,99.90
2018-12-09T13:56:30.490Z,99.90
2018-12-09T13:59:16.253Z,99.90
2018-12-09T14:02:32.529Z,99.90
2018-12-09T14:05:18.514Z,99.90
2018-12-09T14:08:09.323Z,99.90
2018-12-09T14:11:04.537Z,99.90
2018-12-09T14:13:41.037Z,99.90
2018-12-09T14:19:51.802Z,99.90
2018-12-09T14:22:33.097Z,99.90
2018-12-09T14:25:05.900Z,99.90
2018-12-09T14:34:29.110Z,99.90
2018-12-09T14:37:01.809Z,99.90
2018-12-09T14:39:36.210Z,99.90
2018-12-09T14:42:16.585Z,99.90
2018-12-09T14:44:52.881Z,99.90
2018-12-09T14:47:25.430Z,99.90
2018-12-09T14:50:02.244Z,99.90
2018-12-09T14:52:42.494Z,99.90
2018-12-09T14:55:15.463Z,99.90
2018-12-09T14:58:23.782Z,99.90
2018-12-09T15:01:02.546Z,99.90
2018-12-09T15:03:37.949Z,99.90
2018-12-09T15:06:11.141Z,99.90
2018-12-09T15:08:44.629Z,99.90
2018-12-09T15:11:17.383Z,99.90
2018-12-09T15:13:50.822Z,99.90
2018-12-09T15:16:23.614Z,99.90
2018-12-09T15:18:56.416Z,99.90
2018-12-09T15:21:30.171Z,99.90
2018-12-09T15:24:03.290Z,99.90
2018-12-09T15:26:36.103Z,99.90
2018-12-09T15:29:09.250Z,99.90
2018-12-09T15:31:42.702Z,99.90
2018-12-09T15:34:21.001Z,99.90
2018-12-09T15:36:56.201Z,99.90
2018-12-09T15:39:34.659Z,99.90
2018-12-09T15:44:53.259Z,99.90
2018-12-09T15:47:25.931Z,99.90
2018-12-09T15:49:58.614Z,99.90
2018-12-09T15:53:01.876Z,99.90
2018-12-09T15:55:35.205Z,99.90
2018-12-09T15:58:08.537Z,99.90
2018-12-09T16:00:45.294Z,99.90
2018-12-09T16:03:18.313Z,99.90
2018-12-09T16:05:51.047Z,99.90
2018-12-09T16:08:23.685Z,99.90
2018-12-09T16:10:56.574Z,99.90
2018-12-09T16:13:30.211Z,99.90
2018-12-09T16:16:05.724Z,99.30
2018-12-09T16:18:38.414Z,99.40
2018-12-09T16:21:12.447Z,96.60
2018-12-09T16:23:45.781Z,95.10
2018-12-09T16:26:18.503Z,93.60
2018-12-09T16:28:51.935Z,93.10
2018-12-09T16:31:25.367Z,92.30
2018-12-09T16:33:58.381Z,92.10
2018-12-09T16:36:31.336Z,91.90
2018-12-09T16:39:04.415Z,91.40
2018-12-09T16:41:37.935Z,89.30
2018-12-09T16:44:11.096Z,86.50
2018-12-09T16:46:44.770Z,89.10
2018-12-09T16:49:17.563Z,86.50
2018-12-09T16:51:50.129Z,87.30
2018-12-09T16:54:22.782Z,85.80
2018-12-09T16:56:57.712Z,85.50
2018-12-09T16:59:30.471Z,82.30
2018-12-09T17:02:03.214Z,82.30
2018-12-09T17:04:38.757Z,80.30
2018-12-09T17:07:11.601Z,81.30
2018-12-09T17:09:46.802Z,82.30
2018-12-09T17:12:21.892Z,81.70
2018-12-09T17:14:55.259Z,79.70
2018-12-09T17:17:27.952Z,77.20
2018-12-09T17:20:37.821Z,78.10
2018-12-09T17:23:18.744Z,77.60
2018-12-09T17:25:53.370Z,79.90
2018-12-09T17:34:46.550Z,78.30
2018-12-09T17:37:21.972Z,75.80
2018-12-09T17:39:58.376Z,75.80
2018-12-09T17:42:38.708Z,74.50
2018-12-09T17:45:20.267Z,76.90
2018-12-09T17:47:54.096Z,75.70
2018-12-09T17:50:31.661Z,76.20
2018-12-09T17:53:05.843Z,76.60
2018-12-09T17:56:06.932Z,74.30
2018-12-09T17:58:52.182Z,73.90
2018-12-09T18:01:44.406Z,72.50
2018-12-09T18:04:28.017Z,72.30
2018-12-09T18:07:04.664Z,73.20
2018-12-09T18:12:53.594Z,73.50
2018-12-09T18:21:23.760Z,69.60
2018-12-09T18:24:05.854Z,72.50
2018-12-09T18:26:49.853Z,71.00
2018-12-09T18:29:29.744Z,72.20
2018-12-09T18:32:19.171Z,71.40
2018-12-09T18:34:59.578Z,70.20
2018-12-09T18:38:10.609Z,71.10
2018-12-09T18:41:00.489Z,69.00
2018-12-09T18:43:39.271Z,67.90
2018-12-09T18:46:24.384Z,67.00
2018-12-09T18:49:00.431Z,70.00
2018-12-09T18:51:58.911Z,69.00
2018-12-09T18:54:36.480Z,67.50
2018-12-09T18:57:19.670Z,67.40
2018-12-09T18:59:52.935Z,67.70
2018-12-09T19:02:28.314Z,67.70
2018-12-09T19:05:04.594Z,66.10
2018-12-09T19:07:38.721Z,66.30
2018-12-09T19:10:11.317Z,65.90
2018-12-09T19:12:44.826Z,67.40
2018-12-09T19:15:17.742Z,66.00
2018-12-09T19:17:53.998Z,67.10
2018-12-09T19:20:26.905Z,65.60
2018-12-09T19:23:00.657Z,65.00
2018-12-09T19:25:33.544Z,65.00
2018-12-09T19:28:12.735Z,63.50
2018-12-09T19:30:48.336Z,64.90
2018-12-09T19:33:23.630Z,64.80
2018-12-09T19:35:58.991Z,64.70
2018-12-09T19:38:40.024Z,65.20
2018-12-09T19:41:07.553Z,66.40
2018-12-09T19:43:41.730Z,66.00
2018-12-09T19:46:14.625Z,66.30
2018-12-09T19:48:48.115Z,66.30
2018-12-09T19:51:21.366Z,67.70
2018-12-09T19:53:55.869Z,67.20
2018-12-09T19:56:28.771Z,65.60
2018-12-09T19:59:01.910Z,63.40
2018-12-09T20:01:34.931Z,65.50
2018-12-09T20:04:09.866Z,65.60
2018-12-09T20:10:14.233Z,63.10
2018-12-09T20:12:46.602Z,63.60
2018-12-09T20:15:19.720Z,65.20
2018-12-09T20:17:52.351Z,63.80
2018-12-09T20:20:25.680Z,64.00
2018-12-09T20:26:10.442Z,65.20
2018-12-09T20:28:42.806Z,65.10
2018-12-09T20:31:15.834Z,65.00
2018-12-09T20:37:27.628Z,63.80
2018-12-09T20:40:00.244Z,63.50
2018-12-09T20:42:33.558Z,64.60
2018-12-09T20:45:06.272Z,65.30
2018-12-09T20:47:39.845Z,65.60
2018-12-09T20:50:11.463Z,65.40
2018-12-09T20:52:44.154Z,65.90
2018-12-09T20:58:48.607Z,64.90
2018-12-09T21:04:43.049Z,66.20
2018-12-09T21:07:15.385Z,67.90
2018-12-09T21:09:48.602Z,68.50
2018-12-09T21:12:21.537Z,66.00
2018-12-09T21:14:54.799Z,65.10
2018-12-09T21:17:27.250Z,67.20
2018-12-09T21:20:01.138Z,69.00
2018-12-09T21:22:34.387Z,72.50
2018-12-09T21:25:07.586Z,73.70
2018-12-09T21:27:39.945Z,73.80
2018-12-09T21:30:12.825Z,74.30
2018-12-09T21:32:45.143Z,72.50
2018-12-09T21:35:17.725Z,71.00
2018-12-09T21:37:50.050Z,69.20
2018-12-09T21:40:22.759Z,67.70
2018-12-09T21:42:55.966Z,66.80
2018-12-09T21:45:29.054Z,69.40
2018-12-09T21:48:01.621Z,68.50
2018-12-09T21:50:35.170Z,73.50
2018-12-09T21:53:07.521Z,78.10
2018-12-09T21:55:40.456Z,81.60
2018-12-09T21:58:12.791Z,83.00
2018-12-09T22:00:45.247Z,82.80
2018-12-09T22:03:19.231Z,82.90
2018-12-09T22:05:53.729Z,82.80
2018-12-09T22:08:26.831Z,80.80
2018-12-09T22:11:01.742Z,77.90
2018-12-09T22:16:13.873Z,78.00
2018-12-09T22:21:48.353Z,77.00
2018-12-09T22:24:29.022Z,79.00
2018-12-09T22:27:04.794Z,81.80
2018-12-09T22:29:41.139Z,83.10
2018-12-09T22:32:21.894Z,82.70
2018-12-09T22:35:01.751Z,83.90
2018-12-09T22:37:39.147Z,84.70
2018-12-09T22:43:41.482Z,86.20
2018-12-09T22:49:44.692Z,89.40
2018-12-09T22:52:25.600Z,89.20
2018-12-09T22:55:11.724Z,89.80
2018-12-09T22:57:58.010Z,90.10
2018-12-09T23:00:40.910Z,89.80
2018-12-09T23:03:17.213Z,90.10
2018-12-09T23:08:58.887Z,90.20
2018-12-09T23:17:43.627Z,90.70
2018-12-09T23:23:10.873Z,91.10
2018-12-09T23:25:54.115Z,91.70
2018-12-09T23:28:37.375Z,91.60
2018-12-09T23:31:23.294Z,91.90
2018-12-09T23:34:12.272Z,92.00
2018-12-09T23:36:47.982Z,92.00
2018-12-09T23:39:27.286Z,92.40
2018-12-09T23:42:08.106Z,93.00
2018-12-09T23:48:04.439Z,94.40
2018-12-09T23:50:47.459Z,95.30
2018-12-09T23:53:35.284Z,95.90
2018-12-09T23:56:28.983Z,96.60
2018-12-09T23:59:14.330Z,97.00
